Amaranth, Pennsylvania
Current Conditions -  °F | °C
As of 8:53 PM on Monday 22 Dec 2014 (Local Time) from KHGR Reporting Station
Freezing Rain Freezing Rain  
Wind Chill: 29°   Ceiling: 400
Heat Index: 33°   Visibility: 2mi
Dew Point: 31°   Wind: 5mph
Humidity: 92%   Direction: 360°N
Pressure: 30.14"   Gusts: NA
Location:  39.7745°N, 78.2026°W
Report Text: KHGR 230153Z 36004KT 2SM -FZRA BR BKN004 BKN015 OVC037 01/M01 A3014 RMK AO2 RAB00E02FZRAB02 SLP224 P0001 I1003 T00061006
Loading
Personal Weather Stations






























Interactive Weather Map New forecast layout! Learn more

10-Day Weather Forecast

Advertisements
Track Severe Weather on mobile